sensor_id;sensor_type;location;lat;lon;timestamp;pressure;altitude;pressure_sealevel;temperature;humidity
12799;BME280;19250;42.646;26.980;2022-10-03T00:02:37;98839.13;;;17.58;66.09
12799;BME280;19250;42.646;26.980;2022-10-03T00:05:26;98830.41;;;17.82;66.19
12799;BME280;19250;42.646;26.980;2022-10-03T00:08:12;98832.69;;;17.85;63.72
12799;BME280;19250;42.646;26.980;2022-10-03T00:10:56;98835.34;;;17.98;62.77
12799;BME280;19250;42.646;26.980;2022-10-03T00:13:34;98833.03;;;18.21;61.47
12799;BME280;19250;42.646;26.980;2022-10-03T00:16:11;98825.63;;;17.84;62.88
12799;BME280;19250;42.646;26.980;2022-10-03T00:18:52;98823.16;;;17.69;63.88
12799;BME280;19250;42.646;26.980;2022-10-03T00:21:43;98824.16;;;17.35;66.33
12799;BME280;19250;42.646;26.980;2022-10-03T00:24:22;98826.03;;;17.81;63.88
12799;BME280;19250;42.646;26.980;2022-10-03T00:26:58;98822.50;;;17.80;63.22
12799;BME280;19250;42.646;26.980;2022-10-03T00:32:45;98818.38;;;17.71;63.49
12799;BME280;19250;42.646;26.980;2022-10-03T00:35:26;98814.22;;;17.75;63.01
12799;BME280;19250;42.646;26.980;2022-10-03T00:38:12;98809.78;;;18.07;61.36
12799;BME280;19250;42.646;26.980;2022-10-03T00:41:11;98805.03;;;18.09;60.88
12799;BME280;19250;42.646;26.980;2022-10-03T00:44:12;98815.00;;;18.02;60.48
12799;BME280;19250;42.646;26.980;2022-10-03T00:47:06;98809.66;;;17.36;65.29
12799;BME280;19250;42.646;26.980;2022-10-03T00:50:09;98811.44;;;17.03;68.40
12799;BME280;19250;42.646;26.980;2022-10-03T00:52:56;98819.81;;;16.54;71.50
12799;BME280;19250;42.646;26.980;2022-10-03T00:55:43;98811.00;;;16.39;72.67
12799;BME280;19250;42.646;26.980;2022-10-03T00:58:28;98804.91;;;16.17;74.57
12799;BME280;19250;42.646;26.980;2022-10-03T01:01:21;98799.78;;;16.29;74.57
12799;BME280;19250;42.646;26.980;2022-10-03T01:03:55;98796.91;;;16.37;73.87
12799;BME280;19250;42.646;26.980;2022-10-03T01:06:35;98801.28;;;16.38;73.09
12799;BME280;19250;42.646;26.980;2022-10-03T01:09:22;98797.69;;;16.65;71.95
12799;BME280;19250;42.646;26.980;2022-10-03T01:12:12;98801.53;;;16.50;72.67
12799;BME280;19250;42.646;26.980;2022-10-03T01:15:08;98795.44;;;16.82;70.13
12799;BME280;19250;42.646;26.980;2022-10-03T01:17:44;98803.84;;;17.33;66.87
12799;BME280;19250;42.646;26.980;2022-10-03T01:20:27;98797.41;;;17.27;66.48
12799;BME280;19250;42.646;26.980;2022-10-03T01:23:18;98802.59;;;17.35;65.78
12799;BME280;19250;42.646;26.980;2022-10-03T01:25:53;98793.66;;;17.48;64.17
12799;BME280;19250;42.646;26.980;2022-10-03T01:28:41;98787.44;;;17.21;65.16
12799;BME280;19250;42.646;26.980;2022-10-03T01:31:39;98784.72;;;17.08;66.52
12799;BME280;19250;42.646;26.980;2022-10-03T01:34:13;98780.38;;;17.20;66.08
12799;BME280;19250;42.646;26.980;2022-10-03T01:36:53;98774.59;;;17.36;65.54
12799;BME280;19250;42.646;26.980;2022-10-03T01:39:31;98769.81;;;17.38;64.87
12799;BME280;19250;42.646;26.980;2022-10-03T01:42:07;98769.81;;;17.45;64.21
12799;BME280;19250;42.646;26.980;2022-10-03T01:44:47;98773.34;;;17.46;64.50
12799;BME280;19250;42.646;26.980;2022-10-03T01:47:24;98767.75;;;17.47;64.83
12799;BME280;19250;42.646;26.980;2022-10-03T01:50:01;98771.88;;;17.50;63.95
12799;BME280;19250;42.646;26.980;2022-10-03T01:52:38;98739.97;;;17.27;64.37
12799;BME280;19250;42.646;26.980;2022-10-03T01:55:14;98769.00;;;17.45;64.10
12799;BME280;19250;42.646;26.980;2022-10-03T01:57:52;98770.66;;;17.26;65.52
12799;BME280;19250;42.646;26.980;2022-10-03T02:00:24;98777.25;;;17.04;66.47
12799;BME280;19250;42.646;26.980;2022-10-03T02:02:59;98788.66;;;17.19;65.42
12799;BME280;19250;42.646;26.980;2022-10-03T02:05:37;98788.47;;;17.47;63.96
12799;BME280;19250;42.646;26.980;2022-10-03T02:08:14;98790.19;;;17.67;62.36
12799;BME280;19250;42.646;26.980;2022-10-03T02:10:52;98788.69;;;17.25;64.28
12799;BME280;19250;42.646;26.980;2022-10-03T02:13:24;98784.50;;;16.90;66.82
12799;BME280;19250;42.646;26.980;2022-10-03T02:16:03;98735.91;;;16.03;71.42
12799;BME280;19250;42.646;26.980;2022-10-03T02:18:38;98736.81;;;16.17;71.67
12799;BME280;19250;42.646;26.980;2022-10-03T02:21:13;98779.97;;;16.43;71.77
12799;BME280;19250;42.646;26.980;2022-10-03T02:23:44;98781.81;;;16.90;69.44
12799;BME280;19250;42.646;26.980;2022-10-03T02:29:50;98774.38;;;17.25;66.22
12799;BME280;19250;42.646;26.980;2022-10-03T02:35:55;98777.47;;;16.35;72.25
12799;BME280;19250;42.646;26.980;2022-10-03T02:38:57;98763.34;;;16.26;73.61
12799;BME280;19250;42.646;26.980;2022-10-03T02:41:55;98755.59;;;16.58;70.99
12799;BME280;19250;42.646;26.980;2022-10-03T02:50:59;98766.81;;;15.79;76.46
12799;BME280;19250;42.646;26.980;2022-10-03T03:00:10;98769.34;;;16.82;70.13
12799;BME280;19250;42.646;26.980;2022-10-03T03:09:00;98761.47;;;16.94;69.71
12799;BME280;19250;42.646;26.980;2022-10-03T03:18:36;98748.63;;;16.63;73.73
12799;BME280;19250;42.646;26.980;2022-10-03T03:21:17;98728.28;;;16.61;73.40
12799;BME280;19250;42.646;26.980;2022-10-03T03:24:08;98745.31;;;16.81;71.99
12799;BME280;19250;42.646;26.980;2022-10-03T03:29:40;98745.34;;;16.88;72.09
12799;BME280;19250;42.646;26.980;2022-10-03T03:32:19;98750.94;;;16.93;71.76
12799;BME280;19250;42.646;26.980;2022-10-03T03:35:00;98740.34;;;16.78;72.52
12799;BME280;19250;42.646;26.980;2022-10-03T03:37:42;98740.56;;;16.83;72.41
12799;BME280;19250;42.646;26.980;2022-10-03T03:40:27;98742.66;;;16.88;72.62
12799;BME280;19250;42.646;26.980;2022-10-03T03:43:15;98734.31;;;16.63;74.20
12799;BME280;19250;42.646;26.980;2022-10-03T03:45:58;98739.41;;;15.97;78.81
12799;BME280;19250;42.646;26.980;2022-10-03T03:48:59;98738.75;;;15.54;82.76
12799;BME280;19250;42.646;26.980;2022-10-03T03:51:31;98730.34;;;15.15;85.66
12799;BME280;19250;42.646;26.980;2022-10-03T03:57:06;98724.25;;;15.49;85.66
12799;BME280;19250;42.646;26.980;2022-10-03T04:00:07;98716.53;;;15.73;83.48
12799;BME280;19250;42.646;26.980;2022-10-03T04:02:47;98726.97;;;15.96;81.38
12799;BME280;19250;42.646;26.980;2022-10-03T04:05:26;98721.78;;;15.88;81.78
12799;BME280;19250;42.646;26.980;2022-10-03T04:08:15;98713.78;;;16.01;80.75
12799;BME280;19250;42.646;26.980;2022-10-03T04:11:03;98723.13;;;15.15;86.26
12799;BME280;19250;42.646;26.980;2022-10-03T04:16:47;98719.69;;;15.84;83.94
12799;BME280;19250;42.646;26.980;2022-10-03T04:19:43;98718.50;;;15.93;82.27
12799;BME280;19250;42.646;26.980;2022-10-03T04:22:39;98715.75;;;15.79;83.30
12799;BME280;19250;42.646;26.980;2022-10-03T04:25:20;98718.63;;;16.25;81.62
12799;BME280;19250;42.646;26.980;2022-10-03T04:28:07;98713.59;;;16.09;81.14
12799;BME280;19250;42.646;26.980;2022-10-03T04:30:49;98716.38;;;16.29;80.14
12799;BME280;19250;42.646;26.980;2022-10-03T04:33:28;98716.75;;;16.19;80.60
12799;BME280;19250;42.646;26.980;2022-10-03T04:36:41;98722.31;;;16.11;81.14
12799;BME280;19250;42.646;26.980;2022-10-03T04:39:24;98716.03;;;15.98;80.57
12799;BME280;19250;42.646;26.980;2022-10-03T04:42:00;98711.69;;;15.56;83.06
12799;BME280;19250;42.646;26.980;2022-10-03T04:44:46;98707.69;;;15.79;82.18
12799;BME280;19250;42.646;26.980;2022-10-03T04:47:21;98706.13;;;15.98;81.28
12799;BME280;19250;42.646;26.980;2022-10-03T04:49:55;98700.88;;;16.38;79.17
12799;BME280;19250;42.646;26.980;2022-10-03T04:52:31;98703.84;;;16.56;78.74
12799;BME280;19250;42.646;26.980;2022-10-03T04:55:14;98702.03;;;17.02;75.19
12799;BME280;19250;42.646;26.980;2022-10-03T04:57:50;98707.88;;;16.25;80.83
12799;BME280;19250;42.646;26.980;2022-10-03T05:00:23;98702.88;;;16.96;77.34
12799;BME280;19250;42.646;26.980;2022-10-03T05:03:02;98705.56;;;17.35;73.96
12799;BME280;19250;42.646;26.980;2022-10-03T05:05:42;98707.13;;;18.40;67.68
12799;BME280;19250;42.646;26.980;2022-10-03T05:08:18;98703.94;;;18.56;65.50
12799;BME280;19250;42.646;26.980;2022-10-03T05:10:55;98698.00;;;19.03;60.41
12799;BME280;19250;42.646;26.980;2022-10-03T05:13:32;98683.81;;;18.08;67.90
12799;BME280;19250;42.646;26.980;2022-10-03T05:16:09;98719.19;;;18.75;66.49
12799;BME280;19250;42.646;26.980;2022-10-03T05:18:45;98714.16;;;19.41;60.71
12799;BME280;19250;42.646;26.980;2022-10-03T05:21:26;98708.13;;;19.39;59.58
12799;BME280;19250;42.646;26.980;2022-10-03T05:24:01;98704.47;;;20.25;55.84
12799;BME280;19250;42.646;26.980;2022-10-03T05:26:42;98707.38;;;20.59;51.14
12799;BME280;19250;42.646;26.980;2022-10-03T05:29:20;98710.63;;;20.80;49.78
12799;BME280;19250;42.646;26.980;2022-10-03T05:32:05;98720.53;;;21.15;50.00
12799;BME280;19250;42.646;26.980;2022-10-03T05:34:47;98710.75;;;21.26;46.45
12799;BME280;19250;42.646;26.980;2022-10-03T05:40:13;98708.75;;;21.80;44.46
12799;BME280;19250;42.646;26.980;2022-10-03T05:43:00;98705.59;;;21.71;43.00
12799;BME280;19250;42.646;26.980;2022-10-03T05:45:34;98722.34;;;21.91;43.67
12799;BME280;19250;42.646;26.980;2022-10-03T05:48:25;98730.59;;;21.96;43.97
12799;BME280;19250;42.646;26.980;2022-10-03T05:51:18;98742.84;;;22.22;42.78
12799;BME280;19250;42.646;26.980;2022-10-03T05:57:11;98744.38;;;22.18;42.08
12799;BME280;19250;42.646;26.980;2022-10-03T06:00:14;98735.06;;;22.65;41.01
12799;BME280;19250;42.646;26.980;2022-10-03T06:03:02;98745.16;;;23.43;39.51
12799;BME280;19250;42.646;26.980;2022-10-03T06:05:53;98746.28;;;23.80;37.75
12799;BME280;19250;42.646;26.980;2022-10-03T06:08:48;98739.44;;;23.28;38.58
12799;BME280;19250;42.646;26.980;2022-10-03T06:14:53;98741.81;;;22.00;41.88
12799;BME280;19250;42.646;26.980;2022-10-03T06:17:56;98733.06;;;21.51;42.74
12799;BME280;19250;42.646;26.980;2022-10-03T06:26:56;98734.72;;;21.76;43.60
12799;BME280;19250;42.646;26.980;2022-10-03T06:30:03;98723.16;;;22.03;42.49
12799;BME280;19250;42.646;26.980;2022-10-03T06:33:06;98716.59;;;22.28;42.36
12799;BME280;19250;42.646;26.980;2022-10-03T06:36:13;98725.19;;;22.36;41.41
12799;BME280;19250;42.646;26.980;2022-10-03T06:42:10;98736.75;;;20.74;48.07
12799;BME280;19250;42.646;26.980;2022-10-03T06:44:57;98755.19;;;20.84;48.11
12799;BME280;19250;42.646;26.980;2022-10-03T06:47:44;98757.16;;;21.06;47.34
12799;BME280;19250;42.646;26.980;2022-10-03T06:50:33;98723.47;;;21.26;45.49
12799;BME280;19250;42.646;26.980;2022-10-03T06:53:20;98734.47;;;21.19;46.35
12799;BME280;19250;42.646;26.980;2022-10-03T06:56:22;98736.94;;;20.61;49.97
12799;BME280;19250;42.646;26.980;2022-10-03T06:59:13;98727.78;;;20.74;49.47
12799;BME280;19250;42.646;26.980;2022-10-03T07:02:02;98722.63;;;20.72;49.19
12799;BME280;19250;42.646;26.980;2022-10-03T07:10:57;98715.47;;;21.19;45.14
12799;BME280;19250;42.646;26.980;2022-10-03T07:14:00;98705.31;;;21.14;46.81
12799;BME280;19250;42.646;26.980;2022-10-03T07:17:07;98705.69;;;21.41;45.78
12799;BME280;19250;42.646;26.980;2022-10-03T07:20:08;98699.09;;;21.60;43.54
12799;BME280;19250;42.646;26.980;2022-10-03T07:23:18;98693.28;;;22.03;43.12
12799;BME280;19250;42.646;26.980;2022-10-03T07:26:21;98693.97;;;21.99;42.98
12799;BME280;19250;42.646;26.980;2022-10-03T07:29:22;98685.47;;;22.47;42.11
12799;BME280;19250;42.646;26.980;2022-10-03T07:32:05;98689.13;;;22.81;40.16
12799;BME280;19250;42.646;26.980;2022-10-03T07:35:16;98697.00;;;22.54;40.89
12799;BME280;19250;42.646;26.980;2022-10-03T07:38:28;98685.94;;;22.72;40.95
12799;BME280;19250;42.646;26.980;2022-10-03T07:41:32;98679.22;;;22.74;40.10
12799;BME280;19250;42.646;26.980;2022-10-03T07:44:17;98696.22;;;23.15;39.25
12799;BME280;19250;42.646;26.980;2022-10-03T07:50:28;98673.16;;;23.51;37.83
12799;BME280;19250;42.646;26.980;2022-10-03T07:53:16;98671.00;;;23.19;38.18
12799;BME280;19250;42.646;26.980;2022-10-03T07:55:58;98674.50;;;24.08;36.38
12799;BME280;19250;42.646;26.980;2022-10-03T07:58:55;98677.69;;;24.97;34.30
12799;BME280;19250;42.646;26.980;2022-10-03T08:01:54;98679.25;;;26.66;33.76
12799;BME280;19250;42.646;26.980;2022-10-03T08:05:04;98692.84;;;26.35;32.73
12799;BME280;19250;42.646;26.980;2022-10-03T08:07:50;98686.84;;;25.13;34.43
12799;BME280;19250;42.646;26.980;2022-10-03T08:10:50;98686.78;;;26.23;32.38
12799;BME280;19250;42.646;26.980;2022-10-03T08:13:33;98672.75;;;27.02;30.87
12799;BME280;19250;42.646;26.980;2022-10-03T08:16:16;98678.69;;;26.59;31.24
12799;BME280;19250;42.646;26.980;2022-10-03T08:19:06;98688.19;;;26.36;31.84
12799;BME280;19250;42.646;26.980;2022-10-03T08:21:54;98685.34;;;26.93;31.54
12799;BME280;19250;42.646;26.980;2022-10-03T08:24:38;98683.19;;;27.45;30.74
12799;BME280;19250;42.646;26.980;2022-10-03T08:27:32;98688.38;;;27.42;29.71
12799;BME280;19250;42.646;26.980;2022-10-03T08:30:21;98697.09;;;26.11;31.21
12799;BME280;19250;42.646;26.980;2022-10-03T08:33:21;98698.59;;;24.86;32.54
12799;BME280;19250;42.646;26.980;2022-10-03T08:39:09;98700.81;;;24.41;34.41
12799;BME280;19250;42.646;26.980;2022-10-03T08:48:28;98706.94;;;23.88;35.21
12799;BME280;19250;42.646;26.980;2022-10-03T08:54:21;98705.81;;;23.17;36.58
12799;BME280;19250;42.646;26.980;2022-10-03T08:57:25;98707.47;;;22.73;37.57
12799;BME280;19250;42.646;26.980;2022-10-03T09:00:15;98704.53;;;22.63;38.48
12799;BME280;19250;42.646;26.980;2022-10-03T09:06:26;98709.78;;;23.43;37.10
12799;BME280;19250;42.646;26.980;2022-10-03T09:09:20;98714.41;;;23.59;37.52
12799;BME280;19250;42.646;26.980;2022-10-03T09:15:33;98704.31;;;24.36;35.64
12799;BME280;19250;42.646;26.980;2022-10-03T09:18:23;98713.47;;;24.09;35.59
12799;BME280;19250;42.646;26.980;2022-10-03T09:21:23;98714.97;;;24.00;36.51
12799;BME280;19250;42.646;26.980;2022-10-03T09:24:20;98707.16;;;24.25;35.85
12799;BME280;19250;42.646;26.980;2022-10-03T09:27:13;98714.41;;;23.59;36.58
12799;BME280;19250;42.646;26.980;2022-10-03T09:30:13;98719.69;;;23.49;38.04
12799;BME280;19250;42.646;26.980;2022-10-03T09:33:21;98718.00;;;23.31;37.80
12799;BME280;19250;42.646;26.980;2022-10-03T09:36:17;98723.28;;;23.05;37.45
12799;BME280;19250;42.646;26.980;2022-10-03T09:39:02;98719.34;;;22.56;38.25
12799;BME280;19250;42.646;26.980;2022-10-03T09:44:47;98718.44;;;22.50;38.36
12799;BME280;19250;42.646;26.980;2022-10-03T09:47:44;98718.63;;;22.89;38.26
12799;BME280;19250;42.646;26.980;2022-10-03T09:50:50;98715.41;;;22.63;38.21
12799;BME280;19250;42.646;26.980;2022-10-03T10:00:07;98730.22;;;21.81;41.12
12799;BME280;19250;42.646;26.980;2022-10-03T10:06:24;98720.94;;;22.40;40.88
12799;BME280;19250;42.646;26.980;2022-10-03T10:24:40;98737.09;;;21.49;66.33
12799;BME280;19250;42.646;26.980;2022-10-03T10:30:38;98742.75;;;19.92;94.53
12799;BME280;19250;42.646;26.980;2022-10-03T10:39:56;98743.56;;;19.00;100.00
12799;BME280;19250;42.646;26.980;2022-10-03T10:46:09;98735.38;;;18.82;100.00
12799;BME280;19250;42.646;26.980;2022-10-03T10:52:16;98747.03;;;18.76;100.00
12799;BME280;19250;42.646;26.980;2022-10-03T10:55:24;98741.47;;;18.71;100.00
12799;BME280;19250;42.646;26.980;2022-10-03T11:01:35;98732.47;;;18.39;100.00
12799;BME280;19250;42.646;26.980;2022-10-03T11:04:31;98738.53;;;18.28;100.00
12799;BME280;19250;42.646;26.980;2022-10-03T11:07:45;98735.63;;;18.23;100.00
12799;BME280;19250;42.646;26.980;2022-10-03T11:10:38;98718.44;;;18.17;100.00
12799;BME280;19250;42.646;26.980;2022-10-03T11:20:02;98718.00;;;19.70;100.00
12799;BME280;19250;42.646;26.980;2022-10-03T11:26:29;98707.13;;;19.77;100.00
12799;BME280;19250;42.646;26.980;2022-10-03T11:32:38;98709.50;;;19.67;100.00
12799;BME280;19250;42.646;26.980;2022-10-03T11:38:37;98710.59;;;19.84;100.00
12799;BME280;19250;42.646;26.980;2022-10-03T11:41:15;98710.06;;;19.75;100.00
12799;BME280;19250;42.646;26.980;2022-10-03T11:44:20;98705.28;;;19.52;100.00
12799;BME280;19250;42.646;26.980;2022-10-03T11:47:01;98705.75;;;19.68;100.00
12799;BME280;19250;42.646;26.980;2022-10-03T11:52:32;98707.63;;;19.67;100.00
12799;BME280;19250;42.646;26.980;2022-10-03T11:55:13;98703.38;;;19.35;100.00
12799;BME280;19250;42.646;26.980;2022-10-03T11:57:55;98707.13;;;19.77;100.00
12799;BME280;19250;42.646;26.980;2022-10-03T12:00:30;98702.88;;;19.87;100.00
12799;BME280;19250;42.646;26.980;2022-10-03T12:03:14;98697.50;;;20.17;100.00
12799;BME280;19250;42.646;26.980;2022-10-03T12:05:49;98695.84;;;20.16;100.00
12799;BME280;19250;42.646;26.980;2022-10-03T12:08:41;98700.44;;;20.63;99.49
12799;BME280;19250;42.646;26.980;2022-10-03T12:11:24;98703.09;;;20.82;100.00
12799;BME280;19250;42.646;26.980;2022-10-03T12:14:15;98693.47;;;20.56;98.33
12799;BME280;19250;42.646;26.980;2022-10-03T12:17:03;98692.66;;;20.97;98.88
12799;BME280;19250;42.646;26.980;2022-10-03T12:19:37;98694.69;;;21.13;96.12
12799;BME280;19250;42.646;26.980;2022-10-03T12:22:21;98700.97;;;21.25;96.19
12799;BME280;19250;42.646;26.980;2022-10-03T12:24:56;98694.09;;;20.70;98.67
12799;BME280;19250;42.646;26.980;2022-10-03T12:27:33;98696.47;;;20.36;99.66
12799;BME280;19250;42.646;26.980;2022-10-03T12:30:12;98699.59;;;20.51;98.34
12799;BME280;19250;42.646;26.980;2022-10-03T12:32:49;98698.84;;;20.44;97.94
12799;BME280;19250;42.646;26.980;2022-10-03T12:35:34;98703.47;;;20.55;100.00
12799;BME280;19250;42.646;26.980;2022-10-03T12:38:17;98699.72;;;20.56;100.00
12799;BME280;19250;42.646;26.980;2022-10-03T12:40:53;98707.34;;;20.48;100.00
12799;BME280;19250;42.646;26.980;2022-10-03T12:43:34;98703.00;;;20.58;100.00
12799;BME280;19250;42.646;26.980;2022-10-03T12:46:13;98709.34;;;20.52;100.00
12799;BME280;19250;42.646;26.980;2022-10-03T12:48:45;98713.75;;;20.65;100.00
12799;BME280;19250;42.646;26.980;2022-10-03T12:51:30;98707.91;;;20.80;100.00
12799;BME280;19250;42.646;26.980;2022-10-03T12:54:07;98673.53;;;20.50;100.00
12799;BME280;19250;42.646;26.980;2022-10-03T12:56:44;98706.41;;;20.54;99.71
12799;BME280;19250;42.646;26.980;2022-10-03T12:59:30;98695.25;;;20.62;96.61
12799;BME280;19250;42.646;26.980;2022-10-03T13:02:23;98705.53;;;20.42;100.00
12799;BME280;19250;42.646;26.980;2022-10-03T13:07:48;98707.97;;;20.32;100.00
12799;BME280;19250;42.646;26.980;2022-10-03T13:10:25;98714.28;;;19.89;100.00
12799;BME280;19250;42.646;26.980;2022-10-03T13:13:05;98698.09;;;19.83;100.00
12799;BME280;19250;42.646;26.980;2022-10-03T13:15:46;98702.28;;;19.61;98.90
12799;BME280;19250;42.646;26.980;2022-10-03T13:18:32;98688.16;;;19.40;100.00
12799;BME280;19250;42.646;26.980;2022-10-03T13:21:05;98685.63;;;19.39;99.79
12799;BME280;19250;42.646;26.980;2022-10-03T13:23:43;98680.28;;;19.57;100.00
12799;BME280;19250;42.646;26.980;2022-10-03T13:26:18;98666.00;;;19.50;98.71
12799;BME280;19250;42.646;26.980;2022-10-03T13:28:59;98665.78;;;19.51;96.10
12799;BME280;19250;42.646;26.980;2022-10-03T13:31:29;98664.88;;;19.58;95.98
12799;BME280;19250;42.646;26.980;2022-10-03T13:34:02;98658.09;;;20.03;93.19
12799;BME280;19250;42.646;26.980;2022-10-03T13:36:36;98651.25;;;20.78;88.13
12799;BME280;19250;42.646;26.980;2022-10-03T13:39:14;98632.94;;;20.62;89.59
12799;BME280;19250;42.646;26.980;2022-10-03T13:41:58;98657.31;;;22.98;74.21
12799;BME280;19250;42.646;26.980;2022-10-03T13:44:34;98658.25;;;24.88;59.74
12799;BME280;19250;42.646;26.980;2022-10-03T13:47:16;98650.03;;;27.17;47.85
12799;BME280;19250;42.646;26.980;2022-10-03T13:49:51;98659.63;;;29.22;38.14
12799;BME280;19250;42.646;26.980;2022-10-03T13:52:24;98646.84;;;28.14;37.34
12799;BME280;19250;42.646;26.980;2022-10-03T13:55:12;98641.78;;;27.37;40.82
12799;BME280;19250;42.646;26.980;2022-10-03T13:57:45;98647.03;;;24.85;40.48
12799;BME280;19250;42.646;26.980;2022-10-03T14:00:15;98613.47;;;23.44;52.06
12799;BME280;19250;42.646;26.980;2022-10-03T14:02:59;98638.38;;;22.58;59.38
12799;BME280;19250;42.646;26.980;2022-10-03T14:05:59;98640.66;;;23.27;54.46
12799;BME280;19250;42.646;26.980;2022-10-03T14:08:50;98639.13;;;24.62;47.25
12799;BME280;19250;42.646;26.980;2022-10-03T14:11:25;98634.38;;;26.57;39.85
12799;BME280;19250;42.646;26.980;2022-10-03T14:14:17;98639.81;;;26.46;39.21
12799;BME280;19250;42.646;26.980;2022-10-03T14:16:54;98617.72;;;27.29;38.37
12799;BME280;19250;42.646;26.980;2022-10-03T14:19:32;98641.81;;;26.86;38.78
12799;BME280;19250;42.646;26.980;2022-10-03T14:22:20;98639.84;;;25.48;39.45
12799;BME280;19250;42.646;26.980;2022-10-03T14:24:58;98636.91;;;25.49;39.99
12799;BME280;19250;42.646;26.980;2022-10-03T14:27:48;98618.47;;;26.43;36.78
12799;BME280;19250;42.646;26.980;2022-10-03T14:30:19;98640.56;;;26.27;37.63
12799;BME280;19250;42.646;26.980;2022-10-03T14:32:58;98634.56;;;24.67;40.69
12799;BME280;19250;42.646;26.980;2022-10-03T14:35:33;98627.47;;;25.30;40.41
12799;BME280;19250;42.646;26.980;2022-10-03T14:38:14;98632.22;;;25.96;38.86
12799;BME280;19250;42.646;26.980;2022-10-03T14:40:48;98635.47;;;25.05;39.83
12799;BME280;19250;42.646;26.980;2022-10-03T14:43:32;98643.84;;;25.30;39.48
12799;BME280;19250;42.646;26.980;2022-10-03T14:46:05;98639.88;;;25.11;41.24
12799;BME280;19250;42.646;26.980;2022-10-03T14:48:37;98635.09;;;24.64;41.79
12799;BME280;19250;42.646;26.980;2022-10-03T14:51:11;98646.38;;;23.81;45.23
12799;BME280;19250;42.646;26.980;2022-10-03T14:53:47;98644.19;;;23.61;47.46
12799;BME280;19250;42.646;26.980;2022-10-03T14:56:20;98646.78;;;23.51;49.36
12799;BME280;19250;42.646;26.980;2022-10-03T14:58:51;98641.72;;;22.32;53.45
12799;BME280;19250;42.646;26.980;2022-10-03T15:01:21;98649.31;;;21.43;60.36
12799;BME280;19250;42.646;26.980;2022-10-03T15:03:57;98642.63;;;20.70;67.25
12799;BME280;19250;42.646;26.980;2022-10-03T15:06:33;98649.78;;;20.64;71.05
12799;BME280;19250;42.646;26.980;2022-10-03T15:09:07;98625.38;;;20.52;72.46
12799;BME280;19250;42.646;26.980;2022-10-03T15:11:42;98647.38;;;20.44;72.73
12799;BME280;19250;42.646;26.980;2022-10-03T15:14:13;98645.97;;;20.42;74.40
12799;BME280;19250;42.646;26.980;2022-10-03T15:16:45;98643.09;;;20.37;74.39
12799;BME280;19250;42.646;26.980;2022-10-03T15:19:16;98644.75;;;20.38;74.06
12799;BME280;19250;42.646;26.980;2022-10-03T15:21:46;98641.06;;;20.02;76.14
12799;BME280;19250;42.646;26.980;2022-10-03T15:24:20;98652.69;;;19.85;77.36
12799;BME280;19250;42.646;26.980;2022-10-03T15:26:52;98649.84;;;19.98;79.30
12799;BME280;19250;42.646;26.980;2022-10-03T15:29:22;98649.19;;;19.66;81.99
12799;BME280;19250;42.646;26.980;2022-10-03T15:31:53;98648.34;;;19.47;84.45
12799;BME280;19250;42.646;26.980;2022-10-03T15:34:23;98646.91;;;19.63;84.08
12799;BME280;19250;42.646;26.980;2022-10-03T15:36:54;98652.94;;;19.47;83.40
12799;BME280;19250;42.646;26.980;2022-10-03T15:39:27;98645.94;;;19.33;82.92
12799;BME280;19250;42.646;26.980;2022-10-03T15:42:01;98621.13;;;18.75;85.93
12799;BME280;19250;42.646;26.980;2022-10-03T15:44:32;98653.31;;;18.76;86.79
12799;BME280;19250;42.646;26.980;2022-10-03T15:47:06;98655.19;;;18.76;86.73
12799;BME280;19250;42.646;26.980;2022-10-03T15:49:37;98657.75;;;18.71;86.05
12799;BME280;19250;42.646;26.980;2022-10-03T15:52:12;98646.19;;;18.57;87.51
12799;BME280;19250;42.646;26.980;2022-10-03T15:54:45;98649.63;;;18.33;86.39
12799;BME280;19250;42.646;26.980;2022-10-03T15:57:17;98655.88;;;18.33;87.69
12799;BME280;19250;42.646;26.980;2022-10-03T15:59:51;98654.88;;;18.28;85.46
12799;BME280;19250;42.646;26.980;2022-10-03T16:02:22;98666.06;;;18.31;86.24
12799;BME280;19250;42.646;26.980;2022-10-03T16:04:54;98668.88;;;18.05;86.21
12799;BME280;19250;42.646;26.980;2022-10-03T16:07:27;98677.19;;;18.10;84.87
12799;BME280;19250;42.646;26.980;2022-10-03T16:10:12;98675.91;;;18.13;85.35
12799;BME280;19250;42.646;26.980;2022-10-03T16:12:59;98687.81;;;17.92;86.67
12799;BME280;19250;42.646;26.980;2022-10-03T16:15:47;98691.28;;;18.06;84.82
12799;BME280;19250;42.646;26.980;2022-10-03T16:18:48;98649.72;;;17.69;84.31
12799;BME280;19250;42.646;26.980;2022-10-03T16:21:29;98695.31;;;17.83;84.62
12799;BME280;19250;42.646;26.980;2022-10-03T16:24:00;98699.25;;;17.81;84.88
12799;BME280;19250;42.646;26.980;2022-10-03T16:26:34;98688.06;;;17.77;85.03
12799;BME280;19250;42.646;26.980;2022-10-03T16:29:11;98697.81;;;17.78;85.12
12799;BME280;19250;42.646;26.980;2022-10-03T16:31:45;98708.81;;;17.77;85.59
12799;BME280;19250;42.646;26.980;2022-10-03T16:34:17;98708.44;;;17.54;85.05
12799;BME280;19250;42.646;26.980;2022-10-03T16:36:46;98713.00;;;17.73;84.95
12799;BME280;19250;42.646;26.980;2022-10-03T16:39:19;98718.41;;;17.66;85.36
12799;BME280;19250;42.646;26.980;2022-10-03T16:41:50;98723.56;;;17.48;85.90
12799;BME280;19250;42.646;26.980;2022-10-03T16:44:23;98724.22;;;17.30;86.67
12799;BME280;19250;42.646;26.980;2022-10-03T16:46:53;98726.91;;;17.30;87.10
12799;BME280;19250;42.646;26.980;2022-10-03T16:49:30;98735.63;;;17.26;86.46
12799;BME280;19250;42.646;26.980;2022-10-03T16:52:20;98724.19;;;17.43;86.49
12799;BME280;19250;42.646;26.980;2022-10-03T16:54:57;98695.41;;;17.11;86.71
12799;BME280;19250;42.646;26.980;2022-10-03T16:57:34;98721.94;;;17.27;84.69